Weather at Kingston (General Hospital) Heliport

Public forecast

Using degrees Celsius for public forecast. Weather courtesy of forecast.io.

Closest aviation weather report (METAR) to Kingston (General Hospital) Heliport

Report is more than 2 hours old.

Closest report is Kingston Norman Rogers Airport, 4.5 nm (8.3 km) W.

2024/07/24 03:00 (retrieved 3 hours ago)

CYGK 240300Z 09003KT 15SM FEW030TCU BKN130 BKN250 21/21 A3008 RMK TCU1AC4CI2 LAST STFD OBS/NXT 241000Z SLP188 DENSITY ALT 900FT

Closest aviation forecast (TAF) to Kingston (General Hospital) Heliport

Forecast is more than 6 hours old.

Closest forecast is Kingston Norman Rogers Airport, 4.5 nm (8.3 km) W.

2024/07/23 20:00 (retrieved 10 hours ago)

TAF CYGK 231940Z 2320/2403 14005KT P6SM SCT030 TEMPO 2320/2324 P6SM -SHRA BKN030 PROB30 2320/2322 3SM TSRA BR OVC012CB RMK NXT FCST BY 241200Z